Pagrindinis puslapis
METAR-TAF:

METAR-TAF

Oro uostai :

Ankoridžas, Aliaska, Jungtinės Amerikos Valstijos

platuma: 61-11N, ilguma: 149-58W, Aukštis: 22 m

Dabartinis oras

Ataskaita buvo paskelbta 51 minutes, ne 09:53 UTC
Vėjas 10 kt iš Šiaurės/Šiaurės Rytų
Temperatūra -6°C
Drėgmė 62%
Slėgis 1001 hPa
Matomumas: 16.1 km
Išsisklaidę debesys ne aukštis 5500 ft

METAR: PALH 260953Z 02010KT 10SM SCT055 M06/M12 A2955 RMK AO2 SLP009 T10561122

Laikas: 01:44 (10:44 UTC)


TAF: trūkstamas

Orai ataskaitas ir orų prognozės (METAR, TAF).

turimą stotys yra geltonos ir raudonos taškus žemėlapyje.

Perkelti pele per norėdami pamatyti stoties vardą.

Tada spustelėkite, norėdami matyti oro stebėjimo ir prognozės.

Norėdami pakeisti žemėlapį: spustelėkite ant žalios mygtukų su juodo kryžiaus žemyn,; žalią mygtuką su brūkšneliu, jei norite nutolinti; arba žalių rodyklių gretimoms žemėlapius.


METAR-TAF: